• Join FlightAware (Why Join?)
  • Login
  • US Flag 
11:16PM EDT


 

Airport Tracker/Info


-or-


 

Live Flight TrackerFlight Track Log ✈ FDX127 ✈ 20-Jun-2013 ✈ CYYZ - KMEM

Flight Track Log - Related Links

Times and Time Zones

All times are in EDT time to prevent confusion due to time zone crossing. See the FDX127 flight status page for this flight to view local times or setup timezone preferences in your user account.

Time Position Orientation Groundspeed Altitude Reporting Facility
EDT Latitude Longitude Course Direction KTS MPH feet Rate Location/Type
09:44PM 43.6840 -79.6580 317° Northwest  Level FlightAware
09:52PM 43.4809 -79.7768 209° Southwest  Level FlightAware Approximate
09:53PM 43.3818 -79.8553 209° Southwest  Level FlightAware Approximate
09:54PM 43.2829 -79.9337 210° Southwest  Level FlightAware Approximate
09:54PM 43.6840 -79.6560 210° Southwest 10 12  Level FlightAware
09:56PM 43.4929 -79.7678 209° Southwest  Level FlightAware Approximate
09:57PM 43.3938 -79.8463 209° Southwest  Level FlightAware Approximate
09:58PM 43.2952 -79.9254 206° Southwest  Level FlightAware Approximate
09:58PM 43.6950 -79.6370 206° Southwest 12 14  Level FlightAware
10:00PM 43.6770 -79.6600 223° Southwest 167 192 1,200 1,260 Climbing FlightAware
10:00PM 43.6690 -79.6740 232° Southwest 181 208 2,200 2,580 Climbing FlightAware
10:00PM 43.6570 -79.7010 238° Southwest 232 267 3,000 2,820 Climbing FlightAware
10:01PM 43.6340 -79.7400 231° Southwest 262 302 4,800 4,080 Climbing FlightAware
10:01PM 43.6070 -79.7610 209° Southwest 275 316 6,700 4,560 Climbing FlightAware
10:02PM 43.5700 -79.7790 199° South 284 327 9,000 3,900 Climbing FlightAware
10:02PM 43.5260 -79.8010 200° South 302 348 11,600 3,660 Climbing FlightAware
10:03PM 43.5020 -79.8250 216° Southwest 330 380 12,400 2,820 Climbing FlightAware
10:03PM 43.4530 -79.8960 226° Southwest 388 447 14,200 2,700 Climbing FlightAware
10:04PM 43.3980 -79.9720 225° Southwest 426 490 16,300 3,600 Climbing FlightAware
10:05PM 43.3390 -80.0510 224° Southwest 440 506 19,000 3,900 Climbing FlightAware
10:05PM 43.2670 -80.1480 224° Southwest 456 525 21,900 3,120 Climbing FlightAware
10:06PM 43.2020 -80.2350 224° Southwest 474 545 23,700 2,280 Climbing FlightAware
10:07PM 43.1390 -80.3190 224° Southwest 495 570 25,100 2,580 Climbing FlightAware
10:08PM 43.0650 -80.4180 224° Southwest 502 578 27,300 3,000 Climbing FlightAware
10:08PM 42.9940 -80.5100 223° Southwest 501 577 29,400 2,700 Climbing FlightAware
10:09PM 42.9220 -80.6040 224° Southwest 490 564 31,200 1,800 Climbing FlightAware
10:10PM 42.8530 -80.6950 224° Southwest 487 560 32,000 540 Climbing FlightAware
10:10PM 42.7920 -80.7770 225° Southwest 487 560 32,000  Level FlightAware
10:11PM 42.7320 -80.8560 224° Southwest 490 564 32,000  Level FlightAware
10:12PM 42.6490 -80.9440 218° Southwest 498 573 32,000  Level FlightAware
10:12PM 42.5620 -81.0280 215° Southwest 498 573 32,000  Level FlightAware
10:13PM 42.4860 -81.1020 216° Southwest 498 573 32,000  Level FlightAware
10:14PM 42.4070 -81.1780 215° Southwest 496 571 32,000 480 Level FlightAware
10:15PM 42.3320 -81.2500 215° Southwest 495 570 32,700 1,740 Climbing FlightAware
10:16PM 42.2080 -81.3660 215° Southwest 481 554 35,400 2,040 Climbing FlightAware
10:16PM 42.1280 -81.4430 216° Southwest 489 563 36,400 1,200 Climbing FlightAware
10:17PM 42.0440 -81.5230 215° Southwest 501 577 37,100 1,080 Climbing FlightAware
10:18PM 41.9690 -81.5940 215° Southwest 488 562 38,000 660 Climbing FlightAware
10:18PM 41.8930 -81.6640 214° Southwest 481 554 38,000  Level FlightAware
10:19PM 41.8140 -81.7420 216° Southwest 483 556 38,000  Level FlightAware
10:20PM 41.7540 -81.8410 231° Southwest 479 551 38,000  Level FlightAware
10:21PM 41.7000 -81.9320 232° Southwest 479 551 38,000  Level FlightAware
10:21PM 41.6380 -82.0370 232° Southwest 480 552 38,000  Level FlightAware
10:22PM 41.5820 -82.1320 232° Southwest 481 554 38,000  Level FlightAware
10:23PM 41.5200 -82.2370 232° Southwest 481 554 38,000  Level FlightAware
10:23PM 41.4650 -82.3300 232° Southwest 484 557 38,000  Level FlightAware
10:24PM 41.4070 -82.4290 232° Southwest 484 557 38,000  Level FlightAware
10:25PM 41.3590 -82.5080 231° Southwest 483 556 38,000  Level FlightAware
10:26PM 41.2880 -82.6260 231° Southwest 482 555 38,000  Level FlightAware
10:26PM 41.2270 -82.7270 231° Southwest 480 552 38,000  Level FlightAware
10:27PM 41.1720 -82.8190 232° Southwest 480 552 38,000  Level FlightAware
10:28PM 41.1140 -82.9130 231° Southwest 479 551 38,000  Level FlightAware
10:28PM 41.0610 -83.0000 231° Southwest 478 550 38,000  Level FlightAware
10:29PM 41.0030 -83.0960 231° Southwest 477 549 38,000  Level FlightAware
10:30PM 40.9400 -83.1980 231° Southwest 477 549 38,000  Level FlightAware
10:30PM 40.8830 -83.2930 232° Southwest 479 551 38,000  Level FlightAware
10:31PM 40.8200 -83.3930 230° Southwest 480 552 38,000  Level FlightAware
10:32PM 40.7610 -83.4890 231° Southwest 484 557 38,000  Level FlightAware
10:33PM 40.7070 -83.5790 232° Southwest 487 560 38,000 60 Level FlightAware
10:33PM 40.6470 -83.6760 231° Southwest 486 559 38,100  Climbing FlightAware
10:34PM 40.5810 -83.7810 230° Southwest 485 558 38,000 -120 Descending FlightAware
10:35PM 40.5260 -83.8670 230° Southwest 484 557 38,000  Level FlightAware
10:35PM 40.4670 -83.9620 231° Southwest 484 557 38,000  Level FlightAware
10:36PM 40.4050 -84.0600 230° Southwest 485 558 38,000  Level FlightAware
10:37PM 40.3430 -84.1600 231° Southwest 486 559 38,000  Level FlightAware
10:37PM 40.2900 -84.2440 230° Southwest 487 560 38,000  Level FlightAware
10:38PM 40.2270 -84.3420 230° Southwest 488 562 38,000  Level FlightAware
10:39PM 40.1580 -84.4510 230° Southwest 489 563 38,000 60 Level FlightAware
10:40PM 40.1010 -84.5390 230° Southwest 487 560 38,100  Climbing FlightAware
10:40PM 40.0520 -84.6150 230° Southwest 485 558 38,000 -120 Descending FlightAware
10:41PM 39.9820 -84.7250 230° Southwest 485 558 38,000  Level FlightAware
10:42PM 39.9200 -84.8210 230° Southwest 483 556 38,000  Level FlightAware
10:42PM 39.8600 -84.9150 230° Southwest 480 552 38,000  Level FlightAware
10:43PM 39.7990 -85.0090 230° Southwest 478 550 38,000  Level FlightAware
10:44PM 39.7370 -85.1030 229° Southwest 476 548 38,000  Level FlightAware
10:44PM 39.6810 -85.1880 229° Southwest 476 548 38,000  Level FlightAware
10:45PM 39.6500 -85.2360 230° Southwest 478 550 38,000  Level FlightAware
10:46PM 39.5630 -85.3680 229° Southwest 482 555 38,000  Level FlightAware
10:46PM 39.5190 -85.4360 230° Southwest 483 556 38,000  Level FlightAware
10:47PM 39.4600 -85.5270 230° Southwest 483 556 38,000  Level FlightAware
10:48PM 39.4000 -85.6170 229° Southwest 482 555 38,000  Level FlightAware
10:48PM 39.3410 -85.7060 229° Southwest 480 552 38,000  Level FlightAware
10:49PM 39.2760 -85.8010 229° Southwest 480 552 38,000  Level FlightAware
10:50PM 39.2180 -85.8900 230° Southwest 477 549 38,000  Level FlightAware
10:50PM 39.1570 -85.9810 229° Southwest 477 549 38,000  Level FlightAware
10:51PM 39.0990 -86.0660 229° Southwest 476 548 38,000  Level FlightAware
10:52PM 39.0420 -86.1530 230° Southwest 478 550 38,000  Level FlightAware
10:53PM 38.9770 -86.2490 229° Southwest 477 549 38,000  Level FlightAware
10:53PM 38.9130 -86.3440 229° Southwest 477 549 38,000 60 Level FlightAware
10:54PM 38.8550 -86.4290 229° Southwest 476 548 38,100  Climbing FlightAware
10:55PM 38.7940 -86.5180 229° Southwest 474 545 38,000 -120 Descending FlightAware
10:55PM 38.7360 -86.6020 229° Southwest 472 543 38,000  Level FlightAware
10:56PM 38.6820 -86.6820 229° Southwest 470 541 38,000  Level FlightAware
10:57PM 38.6120 -86.7840 229° Southwest 468 539 38,000  Level FlightAware
10:57PM 38.5610 -86.8570 228° Southwest 466 536 38,000  Level FlightAware
10:58PM 38.4920 -86.9580 229° Southwest 466 536 38,000  Level FlightAware
10:59PM 38.4320 -87.0450 229° Southwest 466 536 38,000  Level FlightAware
11:00PM 38.3670 -87.1380 228° Southwest 468 539 38,000  Level FlightAware
11:00PM 38.3090 -87.2200 228° Southwest 470 541 38,000  Level FlightAware
11:01PM 38.2500 -87.3050 229° Southwest 473 544 38,000  Level FlightAware
11:02PM 38.1900 -87.3910 228° Southwest 476 548 38,000  Level FlightAware
11:02PM 38.1260 -87.4830 229° Southwest 478 550 38,000  Level FlightAware
11:03PM 38.0640 -87.5710 228° Southwest 480 552 38,000 60 Level FlightAware
11:04PM 38.0020 -87.6600 229° Southwest 481 554 38,100  Climbing FlightAware
11:04PM 37.9360 -87.7450 225° Southwest 487 560 38,000 -60 Descending FlightAware
11:06PM 37.7760 -87.8560 209° Southwest 495 570 38,000  Level FlightAware
11:07PM 37.7040 -87.9000 206° Southwest 489 563 38,000  Level FlightAware
11:07PM 37.6080 -87.9590 206° Southwest 481 554 38,000  Level FlightAware
11:08PM 37.5120 -88.0170 206° Southwest 476 548 38,000  Level FlightAware
11:09PM 37.4280 -88.0680 206° Southwest 477 549 38,000  Level FlightAware
11:09PM 37.3570 -88.1120 206° Southwest 478 550 38,000 -180 Level FlightAware
11:10PM 37.2600 -88.1690 205° Southwest 481 554 37,800 -600 Descending FlightAware
11:11PM 37.1480 -88.2380 206° Southwest 496 571 37,000 -960 Descending FlightAware
11:12PM 37.0400 -88.3030 206° Southwest 500 575 36,100 -960 Descending FlightAware
11:13PM 36.8920 -88.3900 205° Southwest 503 579 35,100 -1,080 Descending FlightAware
11:14PM 36.7990 -88.4450 205° Southwest 506 582 34,100 -1,560 Descending FlightAware
11:14PM 36.7100 -88.4990 206° Southwest 504 580 33,000 -1,320 Descending FlightAware
11:15PM 36.6460 -88.5360 205° Southwest 505 581 32,600 -840 Descending FlightAware
11:16PM 36.5480 -88.5940 205° Southwest 506 582 32,000 -600 Descending FlightAware
11:17PM 36.4430 -88.6550 205° Southwest 508 585 31,600 -240 Descending FlightAware
11:17PM 36.3590 -88.7040 205° Southwest 508 585 31,600  Level FlightAware
11:18PM 36.2920 -88.7420 205° Southwest 508 585 31,600  Level FlightAware
11:19PM 36.2050 -88.7930 205° Southwest 508 585 31,600  Level FlightAware
11:19PM 36.1380 -88.8310 205° Southwest 508 585 31,600  Level FlightAware
11:21PM 36.0240 -88.8970 205° Southwest 508 585 31,600  Level FlightAware
11:21PM 35.9590 -88.9350 205° Southwest 508 585 31,600  Level FlightAware
11:22PM 35.8700 -88.9860 205° Southwest 508 585 31,600  Level FlightAware
11:23PM 35.8020 -89.0250 205° Southwest 508 585 31,600  Level FlightAware
11:23PM 35.7380 -89.0620 205° Southwest 508 585 31,600  Level FlightAware
11:24PM 35.6480 -89.1140 205° Southwest 508 585 31,600  Level FlightAware
11:25PM 35.5830 -89.1510 205° Southwest 508 585 31,600  Level FlightAware
11:25PM 35.5010 -89.1980 205° Southwest 508 585 31,600  Level FlightAware
11:26PM 35.4340 -89.2360 205° Southwest 508 585 31,600 -14,580 Level FlightAware
11:27PM 35.3986 -89.5011 205° Southwest 391 450 12,700 -11,760 Descending Memphis Center
11:28PM 35.3344 -89.5808 225° Southwest 351 404 11,900 -960 Descending Memphis Center
11:29PM 35.2767 -89.6575 227° Southwest 318 366 10,800 -960 Descending Memphis Center
11:30PM 35.2269 -89.7217 227° Southwest 305 351 10,000 -840 Descending Memphis Center
11:31PM 35.1750 -89.7856 225° Southwest 284 327 9,200 -840 Descending Memphis Center
11:32PM 35.1272 -89.8467 226° Southwest 260 299 8,400 -1,020 Descending Memphis Center
11:33PM 35.0689 -89.8675 196° South 216 249 7,200 -1,500 Descending Memphis Center
11:34PM 35.0042 -89.8653 178° South 229 264 5,500 -1,500 Descending Memphis Center
11:35PM 34.9417 -89.8681 182° South 229 264 4,200 -1,200 Descending Memphis Center
11:36PM 34.8833 -89.8761 186° South 229 264 3,100 -600 Descending Memphis Center
11:37PM 34.8794 -89.9419 266° West 171 197 3,000 -360 Descending Memphis Center
11:38PM 34.9233 -89.9722 331° Northwest 148 170 2,400 -900 Descending Memphis Center
11:39PM 35.0000 -89.9667 North 166 191 800 -1,020 Descending KMEM
11:41PM 35.0333 -89.9667 345° North  Level FlightAware Approximate
11:48PM 35.0424 -89.9767 345° North  Level Estimated
11:49PM 35.0424 -89.9767 345° North  Level Estimated
11:50PM 35.0424 -89.9767 345° North  Level Estimated
11:51PM 35.0424 -89.9767 345° North  Level Estimated
11:52PM 35.0424 -89.9767 345° North  Level Estimated
11:53PM 35.0424 -89.9767 345° North  Level Estimated
11:54PM 35.0424 -89.9767 345° North  Level Estimated
11:55PM 35.0424 -89.9767 345° North  Level Estimated
11:56PM 35.0424 -89.9767 345° North  Level Estimated
11:57PM 35.0424 -89.9767 345° North  Level Estimated
11:58PM 35.0424 -89.9767 345° North  Level Estimated